sensor_id;sensor_type;location;lat;lon;timestamp;P1;durP1;ratioP1;P2;durP2;ratioP2
70927;SDS011;58587;53.034;18.576;2022-09-11T00:01:29;33.75;;;15.80;;
70927;SDS011;58587;53.034;18.576;2022-09-11T00:03:55;32.40;;;16.87;;
70927;SDS011;58587;53.034;18.576;2022-09-11T00:06:21;33.55;;;16.13;;
70927;SDS011;58587;53.034;18.576;2022-09-11T00:08:47;31.80;;;15.50;;
70927;SDS011;58587;53.034;18.576;2022-09-11T00:11:17;35.83;;;16.30;;
70927;SDS011;58587;53.034;18.576;2022-09-11T00:13:50;30.98;;;16.00;;
70927;SDS011;58587;53.034;18.576;2022-09-11T07:57:53;14.20;;;9.07;;
70927;SDS011;58587;53.034;18.576;2022-09-11T08:00:19;12.97;;;8.20;;
70927;SDS011;58587;53.034;18.576;2022-09-11T08:02:45;13.55;;;8.50;;
70927;SDS011;58587;53.034;18.576;2022-09-11T08:05:11;13.27;;;7.57;;
70927;SDS011;58587;53.034;18.576;2022-09-11T08:07:36;12.85;;;7.85;;
70927;SDS011;58587;53.034;18.576;2022-09-11T08:10:02;13.70;;;8.33;;
70927;SDS011;58587;53.034;18.576;2022-09-11T08:12:27;13.03;;;8.17;;
70927;SDS011;58587;53.034;18.576;2022-09-11T08:14:53;12.50;;;7.47;;
70927;SDS011;58587;53.034;18.576;2022-09-11T08:17:18;13.90;;;7.17;;
70927;SDS011;58587;53.034;18.576;2022-09-11T08:19:43;10.88;;;7.10;;
70927;SDS011;58587;53.034;18.576;2022-09-11T08:22:09;13.47;;;7.80;;
70927;SDS011;58587;53.034;18.576;2022-09-11T08:24:35;17.02;;;7.60;;
70927;SDS011;58587;53.034;18.576;2022-09-11T08:27:00;13.43;;;7.83;;
70927;SDS011;58587;53.034;18.576;2022-09-11T08:29:26;11.85;;;7.43;;
70927;SDS011;58587;53.034;18.576;2022-09-11T08:31:51;14.83;;;7.37;;
70927;SDS011;58587;53.034;18.576;2022-09-11T08:34:17;11.17;;;7.03;;
70927;SDS011;58587;53.034;18.576;2022-09-11T08:36:45;13.98;;;6.90;;
70927;SDS011;58587;53.034;18.576;2022-09-11T08:39:11;12.87;;;7.10;;
70927;SDS011;58587;53.034;18.576;2022-09-11T08:41:46;11.23;;;6.80;;
70927;SDS011;58587;53.034;18.576;2022-09-11T08:44:20;12.38;;;6.38;;
70927;SDS011;58587;53.034;18.576;2022-09-11T08:46:56;13.68;;;8.07;;
70927;SDS011;58587;53.034;18.576;2022-09-11T08:49:39;16.48;;;7.72;;
70927;SDS011;58587;53.034;18.576;2022-09-11T08:52:11;10.03;;;6.43;;
70927;SDS011;58587;53.034;18.576;2022-09-11T08:54:38;13.75;;;6.78;;
70927;SDS011;58587;53.034;18.576;2022-09-11T09:11:24;9.52;;;5.53;;
70927;SDS011;58587;53.034;18.576;2022-09-11T09:14:14;10.00;;;5.80;;
70927;SDS011;58587;53.034;18.576;2022-09-11T09:22:15;8.43;;;5.10;;
70927;SDS011;58587;53.034;18.576;2022-09-11T09:25:13;8.65;;;4.80;;
70927;SDS011;58587;53.034;18.576;2022-09-11T09:27:46;9.07;;;4.82;;
70927;SDS011;58587;53.034;18.576;2022-09-11T09:30:20;8.00;;;4.60;;
70927;SDS011;58587;53.034;18.576;2022-09-11T09:32:56;14.05;;;4.68;;
70927;SDS011;58587;53.034;18.576;2022-09-11T09:35:39;7.07;;;4.50;;
70927;SDS011;58587;53.034;18.576;2022-09-11T09:38:08;7.20;;;4.45;;
70927;SDS011;58587;53.034;18.576;2022-09-11T09:40:45;8.23;;;4.05;;
70927;SDS011;58587;53.034;18.576;2022-09-11T09:45:57;8.43;;;4.20;;
70927;SDS011;58587;53.034;18.576;2022-09-11T09:48:45;6.27;;;4.37;;
70927;SDS011;58587;53.034;18.576;2022-09-11T09:51:11;8.02;;;4.40;;
70927;SDS011;58587;53.034;18.576;2022-09-11T09:53:38;7.50;;;4.30;;
70927;SDS011;58587;53.034;18.576;2022-09-11T09:56:09;6.30;;;3.90;;
70927;SDS011;58587;53.034;18.576;2022-09-11T09:58:41;8.00;;;4.00;;
70927;SDS011;58587;53.034;18.576;2022-09-11T10:06:39;8.00;;;3.73;;
70927;SDS011;58587;53.034;18.576;2022-09-11T10:09:16;7.78;;;3.55;;
70927;SDS011;58587;53.034;18.576;2022-09-11T10:11:53;6.82;;;3.65;;
70927;SDS011;58587;53.034;18.576;2022-09-11T10:14:34;4.97;;;3.17;;
70927;SDS011;58587;53.034;18.576;2022-09-11T10:19:55;6.33;;;4.03;;
70927;SDS011;58587;53.034;18.576;2022-09-11T10:22:56;7.45;;;3.90;;
70927;SDS011;58587;53.034;18.576;2022-09-11T10:25:47;6.82;;;3.78;;
70927;SDS011;58587;53.034;18.576;2022-09-11T10:28:14;9.48;;;3.65;;
70927;SDS011;58587;53.034;18.576;2022-09-11T10:30:53;8.90;;;3.70;;
70927;SDS011;58587;53.034;18.576;2022-09-11T10:33:25;6.63;;;3.47;;
70927;SDS011;58587;53.034;18.576;2022-09-11T10:35:54;8.23;;;3.63;;
70927;SDS011;58587;53.034;18.576;2022-09-11T10:38:30;7.03;;;3.47;;
70927;SDS011;58587;53.034;18.576;2022-09-11T10:48:41;7.60;;;3.60;;
70927;SDS011;58587;53.034;18.576;2022-09-11T10:51:08;5.33;;;3.10;;
70927;SDS011;58587;53.034;18.576;2022-09-11T10:54:00;7.43;;;3.72;;
70927;SDS011;58587;53.034;18.576;2022-09-11T10:56:22;7.20;;;3.72;;
70927;SDS011;58587;53.034;18.576;2022-09-11T10:58:48;6.20;;;3.65;;
70927;SDS011;58587;53.034;18.576;2022-09-11T11:01:18;6.07;;;3.35;;
70927;SDS011;58587;53.034;18.576;2022-09-11T11:03:43;9.63;;;3.70;;
70927;SDS011;58587;53.034;18.576;2022-09-11T11:14:58;8.35;;;4.30;;
70927;SDS011;58587;53.034;18.576;2022-09-11T11:26:16;6.32;;;3.20;;
70927;SDS011;58587;53.034;18.576;2022-09-11T11:34:20;8.82;;;3.63;;
70927;SDS011;58587;53.034;18.576;2022-09-11T11:36:50;6.87;;;3.60;;
70927;SDS011;58587;53.034;18.576;2022-09-11T11:42:12;9.32;;;3.58;;
70927;SDS011;58587;53.034;18.576;2022-09-11T11:44:50;6.38;;;3.30;;
70927;SDS011;58587;53.034;18.576;2022-09-11T11:47:20;7.50;;;3.45;;
70927;SDS011;58587;53.034;18.576;2022-09-11T11:55:00;4.88;;;3.33;;
70927;SDS011;58587;53.034;18.576;2022-09-11T11:57:38;4.95;;;3.60;;
70927;SDS011;58587;53.034;18.576;2022-09-11T12:00:08;7.07;;;3.40;;
70927;SDS011;58587;53.034;18.576;2022-09-11T12:05:39;3.67;;;2.90;;
70927;SDS011;58587;53.034;18.576;2022-09-11T12:08:09;6.93;;;3.05;;
70927;SDS011;58587;53.034;18.576;2022-09-11T12:10:37;5.77;;;3.27;;
70927;SDS011;58587;53.034;18.576;2022-09-11T12:13:06;7.25;;;2.80;;
70927;SDS011;58587;53.034;18.576;2022-09-11T12:15:37;4.68;;;3.05;;
70927;SDS011;58587;53.034;18.576;2022-09-11T12:18:17;5.15;;;2.75;;
70927;SDS011;58587;53.034;18.576;2022-09-11T12:20:49;4.53;;;3.10;;
70927;SDS011;58587;53.034;18.576;2022-09-11T12:23:31;5.17;;;2.57;;
70927;SDS011;58587;53.034;18.576;2022-09-11T12:26:17;6.80;;;2.78;;
70927;SDS011;58587;53.034;18.576;2022-09-11T12:28:47;2.92;;;2.00;;
70927;SDS011;58587;53.034;18.576;2022-09-11T12:31:14;8.18;;;2.63;;
70927;SDS011;58587;53.034;18.576;2022-09-11T12:36:16;7.23;;;2.30;;
70927;SDS011;58587;53.034;18.576;2022-09-11T12:41:46;5.00;;;2.63;;
70927;SDS011;58587;53.034;18.576;2022-09-11T12:49:22;4.57;;;1.60;;
70927;SDS011;58587;53.034;18.576;2022-09-11T12:51:50;5.68;;;2.00;;
70927;SDS011;58587;53.034;18.576;2022-09-11T12:54:22;4.75;;;2.22;;
70927;SDS011;58587;53.034;18.576;2022-09-11T12:56:57;3.60;;;2.10;;
70927;SDS011;58587;53.034;18.576;2022-09-11T12:59:28;3.93;;;1.80;;
70927;SDS011;58587;53.034;18.576;2022-09-11T13:01:57;5.95;;;2.55;;
70927;SDS011;58587;53.034;18.576;2022-09-11T13:04:24;4.25;;;2.20;;
70927;SDS011;58587;53.034;18.576;2022-09-11T13:06:56;4.38;;;2.10;;
70927;SDS011;58587;53.034;18.576;2022-09-11T13:09:39;4.03;;;2.17;;
70927;SDS011;58587;53.034;18.576;2022-09-11T13:12:53;4.63;;;2.10;;
70927;SDS011;58587;53.034;18.576;2022-09-11T13:14:59;4.43;;;2.35;;
70927;SDS011;58587;53.034;18.576;2022-09-11T13:17:28;4.23;;;1.93;;
70927;SDS011;58587;53.034;18.576;2022-09-11T13:20:18;3.60;;;2.13;;
70927;SDS011;58587;53.034;18.576;2022-09-11T13:22:46;5.85;;;2.28;;
70927;SDS011;58587;53.034;18.576;2022-09-11T13:25:17;4.85;;;2.10;;
70927;SDS011;58587;53.034;18.576;2022-09-11T13:27:48;2.80;;;2.17;;
70927;SDS011;58587;53.034;18.576;2022-09-11T13:30:16;6.10;;;2.13;;
70927;SDS011;58587;53.034;18.576;2022-09-11T13:32:43;3.83;;;2.10;;
70927;SDS011;58587;53.034;18.576;2022-09-11T13:35:19;7.53;;;2.28;;
70927;SDS011;58587;53.034;18.576;2022-09-11T13:38:01;4.55;;;2.22;;
70927;SDS011;58587;53.034;18.576;2022-09-11T13:40:33;6.50;;;2.00;;
70927;SDS011;58587;53.034;18.576;2022-09-11T13:43:00;2.63;;;2.20;;
70927;SDS011;58587;53.034;18.576;2022-09-11T13:45:26;4.73;;;1.90;;
70927;SDS011;58587;53.034;18.576;2022-09-11T13:47:52;2.25;;;1.52;;
70927;SDS011;58587;53.034;18.576;2022-09-11T13:50:18;3.45;;;1.50;;
70927;SDS011;58587;53.034;18.576;2022-09-11T13:52:46;5.65;;;2.47;;
70927;SDS011;58587;53.034;18.576;2022-09-11T13:55:22;3.77;;;1.83;;
70927;SDS011;58587;53.034;18.576;2022-09-11T13:58:00;2.17;;;1.75;;
70927;SDS011;58587;53.034;18.576;2022-09-11T14:00:37;5.63;;;1.90;;
70927;SDS011;58587;53.034;18.576;2022-09-11T14:03:14;1.83;;;1.73;;
70927;SDS011;58587;53.034;18.576;2022-09-11T14:05:48;4.35;;;2.20;;
70927;SDS011;58587;53.034;18.576;2022-09-11T14:08:24;4.70;;;2.00;;
70927;SDS011;58587;53.034;18.576;2022-09-11T14:11:05;2.88;;;1.70;;
70927;SDS011;58587;53.034;18.576;2022-09-11T14:16:09;2.95;;;1.70;;
70927;SDS011;58587;53.034;18.576;2022-09-11T14:21:33;5.80;;;2.80;;
70927;SDS011;58587;53.034;18.576;2022-09-11T14:24:01;3.75;;;2.08;;
70927;SDS011;58587;53.034;18.576;2022-09-11T14:29:04;4.28;;;2.00;;
70927;SDS011;58587;53.034;18.576;2022-09-11T14:31:46;3.22;;;1.85;;
70927;SDS011;58587;53.034;18.576;2022-09-11T14:40:04;2.58;;;1.70;;
70927;SDS011;58587;53.034;18.576;2022-09-11T14:42:18;2.10;;;1.58;;
70927;SDS011;58587;53.034;18.576;2022-09-11T14:44:45;2.85;;;1.92;;
70927;SDS011;58587;53.034;18.576;2022-09-11T14:47:14;2.83;;;1.80;;
70927;SDS011;58587;53.034;18.576;2022-09-11T14:49:44;5.13;;;1.75;;
70927;SDS011;58587;53.034;18.576;2022-09-11T14:52:13;3.80;;;1.30;;
70927;SDS011;58587;53.034;18.576;2022-09-11T14:54:42;2.87;;;1.60;;
70927;SDS011;58587;53.034;18.576;2022-09-11T14:57:11;3.13;;;1.55;;
70927;SDS011;58587;53.034;18.576;2022-09-11T14:59:38;4.40;;;1.77;;
70927;SDS011;58587;53.034;18.576;2022-09-11T15:02:05;2.97;;;1.50;;
70927;SDS011;58587;53.034;18.576;2022-09-11T15:04:38;4.07;;;1.63;;
70927;SDS011;58587;53.034;18.576;2022-09-11T15:07:04;2.70;;;1.60;;
70927;SDS011;58587;53.034;18.576;2022-09-11T15:09:29;4.00;;;1.85;;
70927;SDS011;58587;53.034;18.576;2022-09-11T15:11:54;2.90;;;1.40;;
70927;SDS011;58587;53.034;18.576;2022-09-11T15:14:20;3.77;;;1.43;;
70927;SDS011;58587;53.034;18.576;2022-09-11T15:16:46;1.85;;;1.58;;
70927;SDS011;58587;53.034;18.576;2022-09-11T15:19:11;3.20;;;1.60;;
70927;SDS011;58587;53.034;18.576;2022-09-11T15:21:36;2.73;;;1.33;;
70927;SDS011;58587;53.034;18.576;2022-09-11T15:24:02;2.97;;;1.40;;
70927;SDS011;58587;53.034;18.576;2022-09-11T15:26:32;4.65;;;1.60;;
70927;SDS011;58587;53.034;18.576;2022-09-11T15:28:58;6.22;;;1.65;;
70927;SDS011;58587;53.034;18.576;2022-09-11T15:31:24;4.47;;;1.40;;
70927;SDS011;58587;53.034;18.576;2022-09-11T15:33:51;2.25;;;1.40;;
70927;SDS011;58587;53.034;18.576;2022-09-11T15:36:17;2.73;;;1.50;;
70927;SDS011;58587;53.034;18.576;2022-09-11T15:38:49;3.05;;;1.27;;
70927;SDS011;58587;53.034;18.576;2022-09-11T15:41:16;3.78;;;1.60;;
70927;SDS011;58587;53.034;18.576;2022-09-11T15:43:45;3.28;;;0.93;;
70927;SDS011;58587;53.034;18.576;2022-09-11T15:46:11;2.93;;;1.17;;
70927;SDS011;58587;53.034;18.576;2022-09-11T15:48:37;3.05;;;1.40;;
70927;SDS011;58587;53.034;18.576;2022-09-11T15:51:03;3.87;;;1.27;;
70927;SDS011;58587;53.034;18.576;2022-09-11T15:53:30;4.13;;;1.40;;
70927;SDS011;58587;53.034;18.576;2022-09-11T15:56:03;3.45;;;1.50;;
70927;SDS011;58587;53.034;18.576;2022-09-11T15:58:30;4.70;;;1.65;;
70927;SDS011;58587;53.034;18.576;2022-09-11T16:00:58;2.92;;;1.10;;
70927;SDS011;58587;53.034;18.576;2022-09-11T16:03:23;4.67;;;1.50;;
70927;SDS011;58587;53.034;18.576;2022-09-11T16:05:49;3.90;;;1.30;;
70927;SDS011;58587;53.034;18.576;2022-09-11T16:08:14;3.87;;;1.70;;
70927;SDS011;58587;53.034;18.576;2022-09-11T16:10:40;5.97;;;1.48;;
70927;SDS011;58587;53.034;18.576;2022-09-11T16:13:06;5.33;;;2.00;;
70927;SDS011;58587;53.034;18.576;2022-09-11T16:15:32;3.13;;;1.70;;
70927;SDS011;58587;53.034;18.576;2022-09-11T16:17:58;5.97;;;1.80;;
70927;SDS011;58587;53.034;18.576;2022-09-11T16:20:23;4.13;;;1.40;;
70927;SDS011;58587;53.034;18.576;2022-09-11T16:22:49;4.77;;;1.53;;
70927;SDS011;58587;53.034;18.576;2022-09-11T16:25:14;5.73;;;1.80;;
70927;SDS011;58587;53.034;18.576;2022-09-11T16:27:40;7.23;;;2.30;;
70927;SDS011;58587;53.034;18.576;2022-09-11T16:30:07;8.25;;;2.35;;
70927;SDS011;58587;53.034;18.576;2022-09-11T16:32:36;3.80;;;1.97;;
70927;SDS011;58587;53.034;18.576;2022-09-11T16:35:04;3.90;;;1.63;;
70927;SDS011;58587;53.034;18.576;2022-09-11T16:37:31;9.60;;;1.92;;
70927;SDS011;58587;53.034;18.576;2022-09-11T16:39:58;3.22;;;1.80;;
70927;SDS011;58587;53.034;18.576;2022-09-11T16:42:25;3.60;;;1.88;;
70927;SDS011;58587;53.034;18.576;2022-09-11T16:44:52;3.33;;;1.63;;
70927;SDS011;58587;53.034;18.576;2022-09-11T16:47:17;5.25;;;1.60;;
70927;SDS011;58587;53.034;18.576;2022-09-11T16:49:44;2.67;;;1.55;;
70927;SDS011;58587;53.034;18.576;2022-09-11T16:52:09;5.03;;;1.90;;
70927;SDS011;58587;53.034;18.576;2022-09-11T16:54:35;6.43;;;2.00;;
70927;SDS011;58587;53.034;18.576;2022-09-11T16:57:01;5.00;;;2.03;;
70927;SDS011;58587;53.034;18.576;2022-09-11T16:59:26;4.17;;;2.20;;
70927;SDS011;58587;53.034;18.576;2022-09-11T17:01:51;6.70;;;2.30;;
70927;SDS011;58587;53.034;18.576;2022-09-11T17:04:20;4.80;;;2.17;;
70927;SDS011;58587;53.034;18.576;2022-09-11T17:06:46;3.57;;;1.80;;
70927;SDS011;58587;53.034;18.576;2022-09-11T17:09:11;2.33;;;1.67;;
70927;SDS011;58587;53.034;18.576;2022-09-11T17:11:36;3.78;;;1.60;;
70927;SDS011;58587;53.034;18.576;2022-09-11T17:14:02;5.37;;;1.60;;
70927;SDS011;58587;53.034;18.576;2022-09-11T17:16:28;3.67;;;1.80;;
70927;SDS011;58587;53.034;18.576;2022-09-11T17:18:55;4.13;;;1.50;;
70927;SDS011;58587;53.034;18.576;2022-09-11T17:21:22;3.83;;;1.52;;
70927;SDS011;58587;53.034;18.576;2022-09-11T17:23:50;5.13;;;2.20;;
70927;SDS011;58587;53.034;18.576;2022-09-11T17:26:19;6.05;;;2.38;;
70927;SDS011;58587;53.034;18.576;2022-09-11T17:28:46;6.70;;;2.57;;
70927;SDS011;58587;53.034;18.576;2022-09-11T17:31:12;6.53;;;2.60;;
70927;SDS011;58587;53.034;18.576;2022-09-11T17:33:39;9.00;;;3.38;;
70927;SDS011;58587;53.034;18.576;2022-09-11T17:36:06;8.18;;;3.70;;
70927;SDS011;58587;53.034;18.576;2022-09-11T17:38:33;7.18;;;3.22;;
70927;SDS011;58587;53.034;18.576;2022-09-11T17:41:00;7.77;;;3.77;;
70927;SDS011;58587;53.034;18.576;2022-09-11T17:43:28;7.20;;;3.50;;
70927;SDS011;58587;53.034;18.576;2022-09-11T17:46:02;9.27;;;4.33;;
70927;SDS011;58587;53.034;18.576;2022-09-11T17:48:38;9.63;;;4.20;;
70927;SDS011;58587;53.034;18.576;2022-09-11T17:51:05;9.35;;;4.03;;
70927;SDS011;58587;53.034;18.576;2022-09-11T17:53:34;8.32;;;3.38;;
70927;SDS011;58587;53.034;18.576;2022-09-11T17:56:02;8.98;;;3.92;;
70927;SDS011;58587;53.034;18.576;2022-09-11T17:58:29;9.77;;;4.20;;
70927;SDS011;58587;53.034;18.576;2022-09-11T18:00:54;13.00;;;4.75;;
70927;SDS011;58587;53.034;18.576;2022-09-11T18:03:24;17.43;;;5.43;;
70927;SDS011;58587;53.034;18.576;2022-09-11T18:05:57;16.83;;;6.15;;
70927;SDS011;58587;53.034;18.576;2022-09-11T18:08:24;19.63;;;6.72;;
70927;SDS011;58587;53.034;18.576;2022-09-11T18:10:56;20.52;;;7.25;;
70927;SDS011;58587;53.034;18.576;2022-09-11T18:13:24;17.42;;;6.43;;
70927;SDS011;58587;53.034;18.576;2022-09-11T18:15:54;13.70;;;5.60;;
70927;SDS011;58587;53.034;18.576;2022-09-11T18:18:20;16.27;;;5.82;;
70927;SDS011;58587;53.034;18.576;2022-09-11T18:20:46;13.38;;;4.47;;
70927;SDS011;58587;53.034;18.576;2022-09-11T18:23:12;10.53;;;4.27;;
70927;SDS011;58587;53.034;18.576;2022-09-11T18:25:39;11.63;;;4.18;;
70927;SDS011;58587;53.034;18.576;2022-09-11T18:28:05;17.55;;;6.38;;
70927;SDS011;58587;53.034;18.576;2022-09-11T18:30:32;21.35;;;6.30;;
70927;SDS011;58587;53.034;18.576;2022-09-11T18:32:58;14.73;;;4.78;;
70927;SDS011;58587;53.034;18.576;2022-09-11T18:35:24;7.23;;;3.30;;
70927;SDS011;58587;53.034;18.576;2022-09-11T18:37:53;7.83;;;3.30;;
70927;SDS011;58587;53.034;18.576;2022-09-11T18:40:19;32.90;;;15.45;;
70927;SDS011;58587;53.034;18.576;2022-09-11T18:42:44;37.25;;;16.58;;
70927;SDS011;58587;53.034;18.576;2022-09-11T18:45:10;20.17;;;9.32;;
70927;SDS011;58587;53.034;18.576;2022-09-11T18:47:36;15.40;;;6.87;;
70927;SDS011;58587;53.034;18.576;2022-09-11T18:50:02;18.17;;;7.00;;
70927;SDS011;58587;53.034;18.576;2022-09-11T18:52:28;14.85;;;6.45;;
70927;SDS011;58587;53.034;18.576;2022-09-11T18:54:55;8.48;;;4.32;;
70927;SDS011;58587;53.034;18.576;2022-09-11T18:57:21;8.53;;;3.80;;
70927;SDS011;58587;53.034;18.576;2022-09-11T18:59:47;10.57;;;4.00;;
70927;SDS011;58587;53.034;18.576;2022-09-11T19:02:13;9.07;;;4.10;;
70927;SDS011;58587;53.034;18.576;2022-09-11T19:04:38;7.40;;;3.60;;
70927;SDS011;58587;53.034;18.576;2022-09-11T19:07:03;8.03;;;3.93;;
70927;SDS011;58587;53.034;18.576;2022-09-11T19:09:29;10.35;;;4.15;;
70927;SDS011;58587;53.034;18.576;2022-09-11T19:11:55;9.73;;;4.10;;
70927;SDS011;58587;53.034;18.576;2022-09-11T19:14:21;8.07;;;3.40;;
70927;SDS011;58587;53.034;18.576;2022-09-11T19:16:47;7.57;;;2.80;;
70927;SDS011;58587;53.034;18.576;2022-09-11T19:19:13;5.90;;;3.15;;
70927;SDS011;58587;53.034;18.576;2022-09-11T19:21:38;8.63;;;3.60;;
70927;SDS011;58587;53.034;18.576;2022-09-11T19:24:04;6.57;;;3.33;;
70927;SDS011;58587;53.034;18.576;2022-09-11T19:26:31;8.45;;;4.07;;
70927;SDS011;58587;53.034;18.576;2022-09-11T19:28:57;7.50;;;3.30;;
70927;SDS011;58587;53.034;18.576;2022-09-11T19:31:23;6.10;;;2.80;;
70927;SDS011;58587;53.034;18.576;2022-09-11T19:33:52;11.32;;;5.03;;
70927;SDS011;58587;53.034;18.576;2022-09-11T19:36:19;23.30;;;11.13;;
70927;SDS011;58587;53.034;18.576;2022-09-11T19:38:47;38.78;;;19.75;;
70927;SDS011;58587;53.034;18.576;2022-09-11T19:41:16;46.90;;;26.15;;
70927;SDS011;58587;53.034;18.576;2022-09-11T19:43:44;27.07;;;15.57;;
70927;SDS011;58587;53.034;18.576;2022-09-11T19:48:44;18.77;;;11.73;;
70927;SDS011;58587;53.034;18.576;2022-09-11T19:51:11;20.02;;;8.55;;
70927;SDS011;58587;53.034;18.576;2022-09-11T19:53:39;12.45;;;6.10;;
70927;SDS011;58587;53.034;18.576;2022-09-11T19:56:05;8.60;;;3.93;;
70927;SDS011;58587;53.034;18.576;2022-09-11T19:58:30;5.72;;;3.50;;
70927;SDS011;58587;53.034;18.576;2022-09-11T20:00:56;6.75;;;2.58;;
70927;SDS011;58587;53.034;18.576;2022-09-11T20:03:22;6.87;;;2.90;;
70927;SDS011;58587;53.034;18.576;2022-09-11T20:05:48;5.33;;;2.80;;
70927;SDS011;58587;53.034;18.576;2022-09-11T20:08:14;4.47;;;2.40;;
70927;SDS011;58587;53.034;18.576;2022-09-11T20:10:40;7.70;;;3.20;;
70927;SDS011;58587;53.034;18.576;2022-09-11T20:13:06;5.07;;;2.37;;
70927;SDS011;58587;53.034;18.576;2022-09-11T20:15:35;4.80;;;2.58;;
70927;SDS011;58587;53.034;18.576;2022-09-11T20:18:01;8.18;;;2.97;;
70927;SDS011;58587;53.034;18.576;2022-09-11T20:20:26;10.30;;;3.10;;
70927;SDS011;58587;53.034;18.576;2022-09-11T20:22:53;15.20;;;4.17;;
70927;SDS011;58587;53.034;18.576;2022-09-11T20:25:18;20.83;;;5.35;;
70927;SDS011;58587;53.034;18.576;2022-09-11T20:27:44;12.77;;;4.10;;
70927;SDS011;58587;53.034;18.576;2022-09-11T20:30:09;14.13;;;4.13;;
70927;SDS011;58587;53.034;18.576;2022-09-11T20:32:35;21.80;;;6.32;;
70927;SDS011;58587;53.034;18.576;2022-09-11T20:35:02;20.58;;;5.82;;
70927;SDS011;58587;53.034;18.576;2022-09-11T20:37:28;19.20;;;5.50;;
70927;SDS011;58587;53.034;18.576;2022-09-11T20:39:54;17.30;;;4.93;;
70927;SDS011;58587;53.034;18.576;2022-09-11T20:42:19;17.27;;;5.83;;
70927;SDS011;58587;53.034;18.576;2022-09-11T20:44:44;9.57;;;3.30;;
70927;SDS011;58587;53.034;18.576;2022-09-11T20:47:11;9.85;;;3.90;;
70927;SDS011;58587;53.034;18.576;2022-09-11T20:49:38;7.10;;;2.70;;
70927;SDS011;58587;53.034;18.576;2022-09-11T20:52:03;6.60;;;2.80;;
70927;SDS011;58587;53.034;18.576;2022-09-11T20:54:28;7.50;;;3.20;;
70927;SDS011;58587;53.034;18.576;2022-09-11T20:56:54;6.90;;;3.40;;
70927;SDS011;58587;53.034;18.576;2022-09-11T20:59:19;6.27;;;2.93;;
70927;SDS011;58587;53.034;18.576;2022-09-11T21:01:44;7.27;;;2.80;;
70927;SDS011;58587;53.034;18.576;2022-09-11T21:04:10;6.77;;;2.80;;
70927;SDS011;58587;53.034;18.576;2022-09-11T21:06:35;5.80;;;3.08;;
70927;SDS011;58587;53.034;18.576;2022-09-11T21:09:05;6.40;;;2.97;;
70927;SDS011;58587;53.034;18.576;2022-09-11T21:11:32;6.47;;;2.70;;
70927;SDS011;58587;53.034;18.576;2022-09-11T21:13:59;5.27;;;3.20;;
70927;SDS011;58587;53.034;18.576;2022-09-11T21:16:24;6.93;;;2.88;;
70927;SDS011;58587;53.034;18.576;2022-09-11T21:18:51;7.17;;;2.70;;
70927;SDS011;58587;53.034;18.576;2022-09-11T21:21:19;5.05;;;2.35;;
70927;SDS011;58587;53.034;18.576;2022-09-11T21:23:45;6.30;;;2.35;;
70927;SDS011;58587;53.034;18.576;2022-09-11T21:26:12;4.85;;;2.60;;
70927;SDS011;58587;53.034;18.576;2022-09-11T21:28:39;3.67;;;2.40;;
70927;SDS011;58587;53.034;18.576;2022-09-11T21:31:05;4.37;;;2.30;;
70927;SDS011;58587;53.034;18.576;2022-09-11T21:33:31;4.22;;;2.50;;
70927;SDS011;58587;53.034;18.576;2022-09-11T21:35:58;4.27;;;2.30;;
70927;SDS011;58587;53.034;18.576;2022-09-11T21:38:24;6.80;;;2.45;;
70927;SDS011;58587;53.034;18.576;2022-09-11T21:40:54;5.55;;;2.55;;
70927;SDS011;58587;53.034;18.576;2022-09-11T21:43:24;6.65;;;2.97;;
70927;SDS011;58587;53.034;18.576;2022-09-11T21:45:50;5.13;;;2.50;;
70927;SDS011;58587;53.034;18.576;2022-09-11T21:48:15;4.72;;;2.53;;
70927;SDS011;58587;53.034;18.576;2022-09-11T21:50:41;4.67;;;2.43;;
70927;SDS011;58587;53.034;18.576;2022-09-11T21:53:07;6.77;;;2.77;;
70927;SDS011;58587;53.034;18.576;2022-09-11T21:55:37;5.53;;;2.70;;
70927;SDS011;58587;53.034;18.576;2022-09-11T21:58:03;6.63;;;2.75;;
70927;SDS011;58587;53.034;18.576;2022-09-11T22:00:29;4.95;;;2.78;;
70927;SDS011;58587;53.034;18.576;2022-09-11T22:02:55;3.73;;;2.30;;
70927;SDS011;58587;53.034;18.576;2022-09-11T22:05:20;4.23;;;2.30;;
70927;SDS011;58587;53.034;18.576;2022-09-11T22:07:45;4.68;;;2.30;;
70927;SDS011;58587;53.034;18.576;2022-09-11T22:10:11;7.13;;;2.40;;
70927;SDS011;58587;53.034;18.576;2022-09-11T22:12:37;4.45;;;2.08;;
70927;SDS011;58587;53.034;18.576;2022-09-11T22:15:03;5.87;;;2.53;;
70927;SDS011;58587;53.034;18.576;2022-09-11T22:17:28;3.73;;;2.33;;
70927;SDS011;58587;53.034;18.576;2022-09-11T22:19:53;5.20;;;2.17;;
70927;SDS011;58587;53.034;18.576;2022-09-11T22:22:19;5.72;;;2.65;;
70927;SDS011;58587;53.034;18.576;2022-09-11T22:24:44;4.47;;;2.33;;
70927;SDS011;58587;53.034;18.576;2022-09-11T22:27:10;4.93;;;2.60;;
70927;SDS011;58587;53.034;18.576;2022-09-11T22:29:35;6.20;;;2.53;;
70927;SDS011;58587;53.034;18.576;2022-09-11T22:32:01;4.18;;;2.13;;
70927;SDS011;58587;53.034;18.576;2022-09-11T22:34:30;4.32;;;2.35;;
70927;SDS011;58587;53.034;18.576;2022-09-11T22:36:56;5.03;;;2.50;;
70927;SDS011;58587;53.034;18.576;2022-09-11T22:39:22;5.03;;;3.10;;
70927;SDS011;58587;53.034;18.576;2022-09-11T22:41:47;7.63;;;2.67;;
70927;SDS011;58587;53.034;18.576;2022-09-11T22:44:12;4.40;;;2.53;;
70927;SDS011;58587;53.034;18.576;2022-09-11T22:46:38;5.40;;;2.70;;
70927;SDS011;58587;53.034;18.576;2022-09-11T22:49:03;5.90;;;2.63;;
70927;SDS011;58587;53.034;18.576;2022-09-11T22:51:29;7.07;;;3.07;;
70927;SDS011;58587;53.034;18.576;2022-09-11T22:53:56;5.82;;;2.72;;
70927;SDS011;58587;53.034;18.576;2022-09-11T22:56:22;5.37;;;2.70;;
70927;SDS011;58587;53.034;18.576;2022-09-11T22:58:47;5.70;;;3.23;;
70927;SDS011;58587;53.034;18.576;2022-09-11T23:01:13;5.37;;;2.73;;
70927;SDS011;58587;53.034;18.576;2022-09-11T23:03:41;4.63;;;2.40;;
70927;SDS011;58587;53.034;18.576;2022-09-11T23:06:08;6.97;;;2.67;;
70927;SDS011;58587;53.034;18.576;2022-09-11T23:08:53;7.27;;;2.47;;
